Time;durP1;ratioP1;P1;durP2;ratioP2;P2;SDS_P1;SDS_P2;PMS_P1;PMS_P2;Temp;Humidity;BMP_temperature;BMP_pressure;BME280_temperature;BME280_humidity;BME280_pressure;Samples;Min_cycle;Max_cycle;Signal;HPM_P1;HPM_P2
2023/06/26 00:04:14;;;;;;;10.93;7.13;;;16.40;99.90;;;;;;10328907;28;20256;-89
2023/06/26 00:09:17;;;;;;;7.95;7.15;;;16.20;99.90;;;;;;10296176;28;20766;-89
2023/06/26 00:14:20;;;;;;;6.93;5.95;;;16.10;99.90;;;;;;10330037;28;20268;-90
2023/06/26 00:19:23;;;;;;;7.60;6.28;;;16.30;99.90;;;;;;10328928;28;20719;-89
2023/06/26 00:24:25;;;;;;;7.35;5.30;;;16.30;99.90;;;;;;10329111;28;20300;-90
2023/06/26 00:29:28;;;;;;;9.50;6.40;;;16.40;99.90;;;;;;10343831;28;20310;-89
2023/06/26 00:34:32;;;;;;;7.75;7.05;;;16.30;99.90;;;;;;10351900;28;20256;-89
2023/06/26 00:39:35;;;;;;;6.57;6.03;;;16.20;99.90;;;;;;10321086;28;20249;-90
2023/06/26 00:44:37;;;;;;;7.10;5.90;;;16.10;99.90;;;;;;10310082;28;20739;-90
2023/06/26 00:49:40;;;;;;;6.35;5.70;;;16.10;99.90;;;;;;10323236;28;20307;-89
2023/06/26 00:54:43;;;;;;;5.93;5.38;;;16.20;99.90;;;;;;10311385;28;20251;-90
2023/06/26 00:59:45;;;;;;;9.38;6.68;;;16.20;99.90;;;;;;10310972;28;20694;-89
2023/06/26 01:04:52;;;;;;;11.05;7.47;;;15.90;99.90;;;;;;10327169;28;20664;-90
2023/06/26 01:09:54;;;;;;;9.25;6.38;;;15.70;99.90;;;;;;10330803;28;20286;-90
2023/06/26 01:14:57;;;;;;;6.57;5.28;;;15.70;99.90;;;;;;10367632;28;20325;-89
2023/06/26 01:20:01;;;;;;;6.72;6.03;;;15.60;99.90;;;;;;10365916;28;20648;-90
2023/06/26 01:25:38;;;;;;;6.38;5.05;;;15.40;99.90;;;;;;10311425;28;20290;-89
2023/06/26 01:30:46;;;;;;;7.22;6.38;;;15.50;99.90;;;;;;10327165;28;20981;-89
2023/06/26 01:35:49;;;;;;;4.50;4.03;;;15.40;99.90;;;;;;10309104;28;20298;-90
2023/06/26 01:40:53;;;;;;;4.55;4.07;;;15.50;99.90;;;;;;10327660;28;20303;-89
2023/06/26 01:46:03;;;;;;;7.82;7.03;;;15.90;99.90;;;;;;10310694;28;20640;-90
2023/06/26 01:51:07;;;;;;;7.32;6.57;;;15.80;99.90;;;;;;10360862;28;20688;-90
2023/06/26 01:56:14;;;;;;;8.98;5.80;;;15.50;99.90;;;;;;10349491;28;20239;-90
2023/06/26 02:01:18;;;;;;;5.97;4.88;;;15.40;99.90;;;;;;10358836;28;20660;-89
2023/06/26 02:06:21;;;;;;;6.03;5.25;;;15.30;99.90;;;;;;10320681;28;20271;-90
2023/06/26 02:11:24;;;;;;;7.32;6.55;;;15.60;99.90;;;;;;10353458;28;20602;-90
2023/06/26 02:16:27;;;;;;;8.45;6.45;;;15.40;99.90;;;;;;10333660;28;20237;-90
2023/06/26 02:21:29;;;;;;;5.95;5.43;;;15.30;99.90;;;;;;10362816;28;20259;-90
2023/06/26 02:26:32;;;;;;;7.57;6.85;;;15.20;99.90;;;;;;10377987;28;20258;-90
2023/06/26 02:31:35;;;;;;;7.50;6.80;;;15.10;99.90;;;;;;10348934;28;20765;-87
2023/06/26 02:36:37;;;;;;;10.20;7.13;;;15.00;99.90;;;;;;10337335;28;20244;-88
2023/06/26 02:41:40;;;;;;;9.15;6.95;;;15.00;99.90;;;;;;10334479;28;20352;-88
2023/06/26 02:46:43;;;;;;;8.23;6.88;;;15.00;99.90;;;;;;10318454;28;20201;-89
2023/06/26 02:51:46;;;;;;;11.15;7.63;;;14.80;99.90;;;;;;10333080;28;20239;-89
2023/06/26 02:57:02;;;;;;;8.13;6.55;;;14.90;99.90;;;;;;10334956;28;20279;-89
2023/06/26 03:02:06;;;;;;;10.15;7.13;;;14.90;99.90;;;;;;10331923;28;20268;-89
2023/06/26 03:07:16;;;;;;;8.88;5.93;;;14.80;99.90;;;;;;10332314;28;20713;-89
2023/06/26 03:12:19;;;;;;;6.78;6.10;;;14.90;99.90;;;;;;10332449;28;20279;-89
2023/06/26 03:17:22;;;;;;;8.68;6.88;;;15.10;99.90;;;;;;10316774;28;20201;-89
2023/06/26 03:22:28;;;;;;;8.18;7.22;;;15.10;99.90;;;;;;10320228;28;20236;-88
2023/06/26 03:27:30;;;;;;;9.43;5.50;;;15.10;99.90;;;;;;10299198;28;20201;-89
2023/06/26 03:32:33;;;;;;;8.23;6.50;;;15.20;99.90;;;;;;10317662;28;20208;-89
2023/06/26 03:37:36;;;;;;;5.43;4.65;;;15.20;99.90;;;;;;10334611;28;20292;-88
2023/06/26 03:42:40;;;;;;;10.98;7.00;;;15.30;99.90;;;;;;10334272;28;20287;-89
2023/06/26 03:47:42;;;;;;;11.98;7.75;;;15.30;99.90;;;;;;10338851;28;20204;-88
2023/06/26 03:52:45;;;;;;;5.97;4.70;;;15.30;99.90;;;;;;10366011;28;20193;-89
2023/06/26 03:57:48;;;;;;;7.50;5.32;;;15.40;99.90;;;;;;10367255;28;20181;-89
2023/06/26 04:02:52;;;;;;;7.53;5.43;;;15.90;99.90;;;;;;10367527;28;20224;-89
2023/06/26 04:07:54;;;;;;;4.57;4.18;;;15.90;99.90;;;;;;10366793;28;20189;-89
2023/06/26 04:12:57;;;;;;;4.18;3.75;;;16.20;99.90;;;;;;10347462;28;20236;-89
2023/06/26 04:18:00;;;;;;;6.97;6.10;;;16.50;99.90;;;;;;10381603;28;20209;-89
2023/06/26 04:23:03;;;;;;;7.22;4.97;;;16.80;99.90;;;;;;10370245;28;20220;-89
2023/06/26 04:28:05;;;;;;;7.50;5.00;;;16.90;99.90;;;;;;10365705;28;20224;-89
2023/06/26 04:33:11;;;;;;;5.72;5.03;;;17.10;99.90;;;;;;10364265;28;20193;-87
2023/06/26 04:38:15;;;;;;;4.10;3.35;;;17.20;99.90;;;;;;10372116;28;20213;-87
2023/06/26 04:43:17;;;;;;;7.97;5.70;;;17.40;99.90;;;;;;10366151;28;20225;-87
2023/06/26 04:48:21;;;;;;;6.97;5.00;;;17.50;99.90;;;;;;10364663;28;20212;-87
2023/06/26 04:53:24;;;;;;;6.03;5.43;;;17.60;99.90;;;;;;10364701;28;20200;-87
2023/06/26 04:58:26;;;;;;;5.38;4.88;;;17.60;99.90;;;;;;10384331;28;20234;-87
2023/06/26 05:03:29;;;;;;;7.28;6.10;;;17.70;99.90;;;;;;10384074;28;20225;-87
2023/06/26 05:08:32;;;;;;;8.82;7.68;;;17.90;99.90;;;;;;10364103;28;20256;-87
2023/06/26 05:13:34;;;;;;;6.57;5.40;;;18.10;99.90;;;;;;10340264;28;1174794;-86
2023/06/26 05:18:37;;;;;;;7.53;5.00;;;18.30;99.90;;;;;;10383806;28;20228;-87
2023/06/26 05:23:40;;;;;;;5.45;4.95;;;18.50;99.90;;;;;;10381568;28;20229;-87
2023/06/26 05:28:48;;;;;;;7.85;6.70;;;18.70;99.90;;;;;;10381319;28;20212;-87
2023/06/26 05:33:55;;;;;;;7.78;7.07;;;18.80;99.90;;;;;;10382117;28;20236;-87
2023/06/26 05:38:58;;;;;;;5.35;4.82;;;18.90;99.90;;;;;;10379894;28;20221;-87
2023/06/26 05:44:00;;;;;;;8.77;7.05;;;19.00;99.90;;;;;;10380341;28;20208;-87
2023/06/26 05:49:03;;;;;;;6.35;5.50;;;19.20;99.90;;;;;;10379183;28;20205;-85
2023/06/26 05:54:06;;;;;;;10.43;6.38;;;19.30;99.90;;;;;;10357308;28;20205;-86
2023/06/26 05:59:11;;;;;;;7.95;6.13;;;19.40;99.90;;;;;;10349957;28;20201;-87
2023/06/26 06:04:13;;;;;;;5.05;4.55;;;19.60;99.90;;;;;;10381085;28;20715;-87
2023/06/26 06:09:16;;;;;;;8.00;6.40;;;19.70;99.90;;;;;;10370826;28;20236;-87
2023/06/26 06:14:18;;;;;;;6.03;4.47;;;19.90;99.40;;;;;;10382001;28;20244;-87
2023/06/26 06:19:22;;;;;;;9.95;7.35;;;20.00;99.30;;;;;;10403209;28;20180;-87
2023/06/26 06:24:24;;;;;;;8.07;5.38;;;20.30;98.40;;;;;;10373810;28;20217;-88
2023/06/26 06:29:27;;;;;;;9.52;6.53;;;20.50;98.10;;;;;;10383791;28;20267;-87
2023/06/26 06:34:29;;;;;;;7.35;4.63;;;20.60;97.30;;;;;;10383231;28;20185;-87
2023/06/26 06:39:32;;;;;;;20.08;7.03;;;20.80;97.00;;;;;;10383580;28;20193;-88
2023/06/26 06:44:34;;;;;;;5.72;4.75;;;21.00;94.90;;;;;;10418261;28;20658;-86
2023/06/26 06:49:37;;;;;;;7.07;6.03;;;21.20;94.70;;;;;;10428498;28;20204;-87
2023/06/26 06:54:58;;;;;;;5.63;4.93;;;21.40;93.90;;;;;;10395769;28;20197;-87
2023/06/26 07:00:04;;;;;;;8.30;5.85;;;21.60;92.60;;;;;;10389876;28;20188;-88
2023/06/26 07:05:06;;;;;;;10.38;5.88;;;21.80;89.90;;;;;;10390004;28;20252;-88
2023/06/26 07:10:11;;;;;;;5.28;4.47;;;22.00;88.80;;;;;;10373969;28;20181;-88
2023/06/26 07:15:14;;;;;;;5.72;4.35;;;22.20;88.70;;;;;;10390242;28;20251;-88
2023/06/26 07:20:16;;;;;;;6.25;4.35;;;22.40;80.40;;;;;;10384843;28;20634;-88
2023/06/26 07:25:19;;;;;;;7.22;4.25;;;22.70;76.30;;;;;;10370881;28;20209;-88
2023/06/26 07:30:22;;;;;;;6.10;4.55;;;22.80;70.00;;;;;;10372547;28;20213;-88
2023/06/26 07:35:27;;;;;;;6.32;4.78;;;23.10;73.80;;;;;;10376661;28;20189;-87
2023/06/26 07:40:29;;;;;;;5.78;4.43;;;23.30;71.70;;;;;;10414762;28;20214;-88
2023/06/26 07:45:32;;;;;;;8.30;4.63;;;23.50;69.90;;;;;;10334428;28;20284;-88
2023/06/26 07:50:35;;;;;;;7.28;4.50;;;23.60;69.80;;;;;;10342879;28;20244;-88
2023/06/26 07:55:38;;;;;;;5.55;4.55;;;23.70;66.00;;;;;;10324243;28;20573;-88
2023/06/26 08:00:40;;;;;;;5.35;4.63;;;23.90;64.90;;;;;;10319837;28;20276;-88
2023/06/26 08:05:43;;;;;;;4.80;3.85;;;24.20;65.70;;;;;;10326938;28;20233;-88
2023/06/26 08:10:46;;;;;;;3.58;3.28;;;24.30;58.70;;;;;;10335496;28;20205;-88
2023/06/26 08:15:49;;;;;;;6.22;4.53;;;24.40;55.40;;;;;;10306797;28;20787;-88
2023/06/26 08:20:52;;;;;;;3.63;3.33;;;24.50;58.40;;;;;;10306998;28;20209;-88
2023/06/26 08:25:54;;;;;;;4.18;3.78;;;24.70;58.10;;;;;;10360020;28;20236;-88
2023/06/26 08:30:57;;;;;;;10.95;5.07;;;24.80;54.30;;;;;;10334995;28;20550;-87
2023/06/26 08:35:59;;;;;;;7.03;4.57;;;25.00;59.10;;;;;;10330936;28;20267;-86
2023/06/26 08:41:02;;;;;;;5.53;4.57;;;25.10;57.50;;;;;;10336444;28;20297;-88
2023/06/26 08:46:04;;;;;;;9.10;5.75;;;25.30;55.80;;;;;;10340395;28;20588;-89
2023/06/26 08:51:15;;;;;;;4.32;3.90;;;25.50;54.10;;;;;;10336140;28;20217;-88
2023/06/26 08:56:21;;;;;;;5.75;4.18;;;25.70;54.10;;;;;;10331096;28;20276;-88
2023/06/26 09:01:24;;;;;;;5.47;4.78;;;25.70;54.40;;;;;;10340483;28;20217;-88
2023/06/26 09:06:27;;;;;;;3.97;3.58;;;25.80;54.40;;;;;;10335595;28;20236;-89
2023/06/26 09:11:30;;;;;;;6.63;4.90;;;25.90;52.20;;;;;;10337524;28;20201;-89
2023/06/26 09:16:40;;;;;;;6.55;4.57;;;25.90;46.00;;;;;;10333878;28;20228;-88
2023/06/26 09:21:43;;;;;;;4.47;4.05;;;25.80;43.30;;;;;;10337351;28;20240;-89
2023/06/26 09:26:47;;;;;;;5.57;4.53;;;26.00;47.40;;;;;;10333234;28;20240;-87
2023/06/26 09:31:51;;;;;;;6.22;5.63;;;26.00;48.50;;;;;;9989913;28;10000415;-88
2023/06/26 09:36:55;;;;;;;6.00;5.03;;;26.40;49.50;;;;;;10328695;28;20267;-88
2023/06/26 09:41:58;;;;;;;6.40;4.70;;;26.60;56.20;;;;;;10324667;28;20241;-87
2023/06/26 09:47:04;;;;;;;7.57;5.82;;;26.40;50.40;;;;;;10324609;28;20295;-87
2023/06/26 09:52:07;;;;;;;6.03;4.25;;;26.40;44.70;;;;;;10324149;28;20240;-88
2023/06/26 09:57:15;;;;;;;4.47;4.03;;;26.30;46.50;;;;;;10332882;28;20228;-87
2023/06/26 10:02:17;;;;;;;8.10;6.25;;;26.50;46.40;;;;;;10326143;28;20256;-88
2023/06/26 10:07:22;;;;;;;5.32;4.82;;;26.50;42.50;;;;;;10323330;28;20295;-89
2023/06/26 10:12:30;;;;;;;6.70;5.15;;;26.40;41.00;;;;;;10324163;28;20342;-89
2023/06/26 10:17:36;;;;;;;7.18;5.05;;;26.50;43.10;;;;;;10306428;28;20248;-88
2023/06/26 10:22:45;;;;;;;8.27;5.10;;;26.60;40.90;;;;;;10287263;28;20260;-89
2023/06/26 10:27:52;;;;;;;8.80;5.90;;;26.80;37.00;;;;;;10273090;28;20690;-89
2023/06/26 10:32:56;;;;;;;6.13;5.55;;;;;;;;;;10292375;28;20241;-89
2023/06/26 10:38:04;;;;;;;4.90;4.47;;;27.30;61.70;;;;;;10299454;28;20256;-88
2023/06/26 10:43:09;;;;;;;7.30;5.57;;;27.40;53.20;;;;;;10302907;28;20316;-89
2023/06/26 10:48:15;;;;;;;7.10;5.10;;;27.40;44.90;;;;;;10274926;28;20763;-89
2023/06/26 10:53:26;;;;;;;6.03;5.22;;;27.50;47.10;;;;;;10291329;28;20722;-88
2023/06/26 10:58:51;;;;;;;5.93;4.30;;;;;;;;;;10290947;28;20253;-89
2023/06/26 11:04:06;;;;;;;5.68;5.07;;;27.00;74.80;;;;;;10273324;28;20383;-89
2023/06/26 11:09:15;;;;;;;11.10;6.13;;;27.50;69.00;;;;;;10274297;28;20253;-89
2023/06/26 11:14:25;;;;;;;5.43;4.05;;;27.50;62.00;;;;;;10311365;28;20723;-89
2023/06/26 11:19:28;;;;;;;7.43;5.07;;;27.40;60.70;;;;;;10290950;28;20253;-90
2023/06/26 11:24:31;;;;;;;9.27;6.15;;;27.30;61.90;;;;;;10291129;28;20269;-91
2023/06/26 11:29:34;;;;;;;8.13;5.78;;;27.40;57.30;;;;;;10296028;28;20364;-89
2023/06/26 11:34:38;;;;;;;6.88;5.10;;;27.40;59.60;;;;;;10348731;28;20291;-91
2023/06/26 11:39:40;;;;;;;8.40;4.90;;;27.50;55.70;;;;;;10297135;28;20299;-90
2023/06/26 11:44:44;;;;;;;8.95;4.80;;;28.00;47.00;;;;;;10330736;28;20624;-90
2023/06/26 11:49:48;;;;;;;6.93;4.72;;;27.70;35.50;;;;;;10344178;28;20690;-90
2023/06/26 11:54:51;;;;;;;10.00;5.53;;;27.40;33.60;;;;;;10357735;28;20244;-90
2023/06/26 11:59:53;;;;;;;7.07;5.13;;;27.30;33.40;;;;;;10312510;28;20248;-90
2023/06/26 12:04:56;;;;;;;5.72;5.03;;;27.30;32.60;;;;;;10311703;28;20330;-90
2023/06/26 12:09:59;;;;;;;7.90;5.20;;;27.20;35.90;;;;;;10333987;28;20249;-89
2023/06/26 12:15:02;;;;;;;6.38;4.70;;;27.20;34.80;;;;;;10328378;28;20315;-88
2023/06/26 12:20:05;;;;;;;4.93;4.45;;;27.30;29.80;;;;;;10328490;28;20746;-88
2023/06/26 12:25:08;;;;;;;7.70;5.22;;;27.60;29.20;;;;;;10331964;28;20283;-88
2023/06/26 12:30:11;;;;;;;6.22;5.32;;;;;;;;;;10328478;28;20241;-88
2023/06/26 12:35:15;;;;;;;5.97;4.50;;;28.70;55.00;;;;;;10349727;28;20231;-88
2023/06/26 12:40:23;;;;;;;5.95;4.85;;;28.30;50.60;;;;;;10339097;28;20695;-88
2023/06/26 12:45:26;;;;;;;7.65;5.53;;;28.00;40.50;;;;;;10347452;28;20736;-89
2023/06/26 12:50:43;;;;;;;5.70;4.65;;;27.90;26.40;;;;;;10329328;28;20248;-88
2023/06/26 12:55:45;;;;;;;5.65;4.95;;;27.60;24.40;;;;;;10328852;28;20677;-88
2023/06/26 13:00:48;;;;;;;7.10;5.50;;;27.40;25.30;;;;;;10328201;28;20236;-88
2023/06/26 13:05:50;;;;;;;6.22;4.00;;;27.30;26.20;;;;;;10328020;28;20642;-91
2023/06/26 13:10:53;;;;;;;7.50;6.30;;;27.20;26.80;;;;;;10327166;28;20276;-90
2023/06/26 13:15:55;;;;;;;11.15;5.05;;;27.30;24.90;;;;;;10329412;28;20272;-90
2023/06/26 13:20:58;;;;;;;8.00;5.75;;;27.30;29.10;;;;;;10341524;28;20302;-90
2023/06/26 13:26:01;;;;;;;11.85;5.78;;;27.40;31.00;;;;;;10366751;28;20802;-90
2023/06/26 13:31:04;;;;;;;8.95;5.78;;;27.50;26.40;;;;;;10349468;28;20616;-90
2023/06/26 13:36:07;;;;;;;5.40;4.90;;;27.80;28.70;;;;;;10358926;28;20280;-91
2023/06/26 13:41:10;;;;;;;4.43;4.03;;;27.60;24.60;;;;;;10330765;28;20334;-90
2023/06/26 13:46:12;;;;;;;7.10;4.93;;;27.80;27.10;;;;;;10327765;28;20264;-91
2023/06/26 13:51:15;;;;;;;7.78;4.85;;;27.70;28.80;;;;;;10307428;28;20298;-90
2023/06/26 13:56:17;;;;;;;5.03;4.30;;;27.80;27.70;;;;;;10319076;28;20638;-90
2023/06/26 14:01:20;;;;;;;6.13;5.47;;;27.80;29.30;;;;;;10365740;28;20319;-91
2023/06/26 14:06:22;;;;;;;6.60;5.10;;;27.80;30.80;;;;;;10361392;28;20264;-89
2023/06/26 14:11:25;;;;;;;4.68;4.00;;;27.70;29.80;;;;;;10286516;28;20241;-88
2023/06/26 14:16:28;;;;;;;5.68;5.05;;;27.60;31.60;;;;;;10285334;28;20270;-88
2023/06/26 14:21:33;;;;;;;7.05;5.53;;;27.60;32.50;;;;;;10283983;28;20245;-88
2023/06/26 14:26:36;;;;;;;3.85;3.47;;;27.60;31.20;;;;;;10323256;28;20260;-88
2023/06/26 14:31:39;;;;;;;5.15;4.30;;;27.70;32.40;;;;;;10334261;28;20244;-88
2023/06/26 14:36:43;;;;;;;6.40;5.05;;;27.80;31.10;;;;;;10348315;28;20696;-89
2023/06/26 14:41:47;;;;;;;8.02;4.95;;;28.00;30.20;;;;;;10324787;28;20233;-88
2023/06/26 14:46:50;;;;;;;6.70;4.63;;;27.90;29.50;;;;;;10307257;28;20260;-89
2023/06/26 14:51:53;;;;;;;4.93;4.38;;;28.10;30.10;;;;;;10327596;28;20685;-88
2023/06/26 14:57:01;;;;;;;6.15;5.55;;;28.20;30.70;;;;;;10325367;28;20283;-88
2023/06/26 15:02:04;;;;;;;6.97;5.50;;;27.90;30.10;;;;;;10309775;28;20244;-88
2023/06/26 15:07:07;;;;;;;5.18;4.70;;;28.10;33.10;;;;;;10331335;28;20672;-90
2023/06/26 15:12:09;;;;;;;4.38;3.97;;;28.00;32.40;;;;;;10314452;28;20744;-90
2023/06/26 15:17:12;;;;;;;4.85;4.38;;;27.70;30.90;;;;;;10317035;28;20311;-89
2023/06/26 15:22:18;;;;;;;4.53;4.13;;;27.60;30.50;;;;;;10332020;28;20232;-90
2023/06/26 15:27:20;;;;;;;5.22;4.15;;;27.50;31.80;;;;;;10354903;28;20271;-90
2023/06/26 15:32:27;;;;;;;4.10;3.70;;;27.40;30.40;;;;;;10355589;28;20248;-90
2023/06/26 15:37:30;;;;;;;6.72;5.90;;;27.20;30.70;;;;;;10347650;28;20303;-90
2023/06/26 15:42:32;;;;;;;9.15;5.00;;;27.20;29.10;;;;;;10330715;28;20236;-91
2023/06/26 15:47:35;;;;;;;6.90;6.20;;;27.30;29.10;;;;;;10312990;28;20264;-90
2023/06/26 15:52:39;;;;;;;6.28;5.68;;;27.20;29.50;;;;;;10330064;28;20256;-90
2023/06/26 15:57:41;;;;;;;6.57;5.63;;;27.20;30.80;;;;;;10327673;28;20248;-88
2023/06/26 16:02:44;;;;;;;5.88;5.22;;;27.20;32.30;;;;;;10351344;28;20241;-88
2023/06/26 16:07:46;;;;;;;6.35;5.75;;;27.20;32.80;;;;;;10335014;28;20915;-88
2023/06/26 16:12:59;;;;;;;7.00;6.35;;;27.30;32.30;;;;;;10338809;28;20256;-88
2023/06/26 16:18:02;;;;;;;5.32;4.82;;;27.40;32.60;;;;;;10330059;28;20295;-88
2023/06/26 16:23:05;;;;;;;7.65;6.35;;;27.30;32.50;;;;;;10328342;28;20318;-88
2023/06/26 16:28:07;;;;;;;8.32;6.80;;;27.20;35.30;;;;;;10311904;28;20272;-88
2023/06/26 16:33:10;;;;;;;8.68;6.38;;;27.00;36.60;;;;;;10326414;28;20621;-89
2023/06/26 16:38:13;;;;;;;6.68;5.90;;;27.00;37.30;;;;;;10329398;28;20315;-89
2023/06/26 16:43:17;;;;;;;14.93;7.13;;;27.00;37.30;;;;;;10340609;28;20290;-87
2023/06/26 16:48:19;;;;;;;13.30;6.72;;;26.90;40.00;;;;;;10340657;28;20732;-88
2023/06/26 16:53:22;;;;;;;15.85;6.60;;;26.90;40.50;;;;;;10321414;28;20356;-88
2023/06/26 16:58:25;;;;;;;5.93;4.65;;;26.80;43.40;;;;;;10344190;28;20246;-88
2023/06/26 17:03:28;;;;;;;11.18;5.85;;;26.70;41.10;;;;;;10327368;28;20252;-88
2023/06/26 17:08:31;;;;;;;8.77;6.47;;;26.50;41.30;;;;;;10316872;28;20264;-87
2023/06/26 17:13:33;;;;;;;9.07;6.03;;;26.30;42.90;;;;;;10323140;28;20264;-87
2023/06/26 17:18:36;;;;;;;6.22;5.63;;;26.20;43.10;;;;;;10356498;28;20804;-87
2023/06/26 17:23:39;;;;;;;9.15;8.05;;;26.00;45.20;;;;;;10324287;28;20267;-88
2023/06/26 17:28:42;;;;;;;9.88;5.85;;;25.90;46.90;;;;;;10320237;28;20319;-86
2023/06/26 17:33:44;;;;;;;7.47;6.60;;;25.80;47.20;;;;;;10323980;28;20240;-86
2023/06/26 17:38:50;;;;;;;7.90;7.13;;;25.70;52.30;;;;;;10334139;28;20712;-86
2023/06/26 17:44:00;;;;;;;8.00;6.38;;;25.50;51.10;;;;;;10310240;28;20241;-87
2023/06/26 17:49:05;;;;;;;9.48;7.20;;;25.90;51.20;;;;;;10320905;28;20243;-87
2023/06/26 17:54:08;;;;;;;6.07;5.47;;;25.20;55.00;;;;;;10334176;28;20919;-87
2023/06/26 17:59:12;;;;;;;10.70;6.90;;;25.00;53.80;;;;;;10325139;28;20695;-87
2023/06/26 18:04:15;;;;;;;11.18;5.80;;;24.90;59.10;;;;;;10324962;28;20256;-87
2023/06/26 18:09:17;;;;;;;9.93;6.63;;;24.70;59.80;;;;;;11386220;23;20270;-86
2023/06/26 18:14:21;;;;;;;8.70;7.07;;;24.60;63.60;;;;;;10306172;28;20268;-87
2023/06/26 18:19:23;;;;;;;5.47;5.07;;;24.40;70.20;;;;;;10321529;28;20295;-87
2023/06/26 18:24:26;;;;;;;7.78;6.28;;;24.30;65.60;;;;;;10357919;28;20727;-86
2023/06/26 18:29:29;;;;;;;10.00;7.63;;;24.20;70.80;;;;;;10355530;28;20270;-87
2023/06/26 18:34:31;;;;;;;8.27;7.25;;;24.10;78.00;;;;;;10308431;28;20621;-86
2023/06/26 18:39:34;;;;;;;10.43;7.97;;;24.00;78.60;;;;;;10326682;28;20307;-86
2023/06/26 18:44:37;;;;;;;8.15;7.00;;;23.90;83.40;;;;;;10337855;28;20252;-86
2023/06/26 18:49:42;;;;;;;16.90;8.70;;;23.80;85.20;;;;;;9986886;28;10001076;-86
2023/06/26 18:54:44;;;;;;;7.88;7.07;;;23.70;87.00;;;;;;10329162;28;20774;-86
2023/06/26 18:59:48;;;;;;;11.32;8.32;;;23.70;86.90;;;;;;10357405;28;20851;-87
2023/06/26 19:04:50;;;;;;;6.18;5.00;;;23.60;88.30;;;;;;10330910;28;20248;-87
2023/06/26 19:09:53;;;;;;;13.70;6.07;;;23.60;78.60;;;;;;10336477;28;20315;-87
2023/06/26 19:14:56;;;;;;;9.52;5.63;;;22.70;96.00;;;;;;10329293;28;20299;-87
2023/06/26 19:19:58;;;;;;;13.07;6.93;;;21.90;99.90;;;;;;10007292;28;10000141;-88
2023/06/26 19:25:01;;;;;;;6.63;5.95;;;19.70;99.90;;;;;;10354077;28;20314;-89
2023/06/26 19:30:05;;;;;;;7.70;6.85;;;19.10;99.90;;;;;;10372173;28;20305;-89
2023/06/26 19:35:08;;;;;;;11.45;7.78;;;18.80;99.90;;;;;;10366188;28;20284;-88
2023/06/26 19:40:11;;;;;;;8.63;7.07;;;18.80;99.90;;;;;;10340779;28;20243;-87
2023/06/26 19:45:13;;;;;;;7.38;6.68;;;18.80;99.90;;;;;;10330141;28;20726;-87
2023/06/26 19:50:16;;;;;;;6.80;6.18;;;18.70;99.90;;;;;;10325057;28;20303;-86
2023/06/26 19:55:18;;;;;;;6.60;5.97;;;18.60;99.90;;;;;;10314022;28;20252;-87
2023/06/26 20:00:21;;;;;;;6.47;5.88;;;18.60;99.90;;;;;;10332246;28;20241;-88
2023/06/26 20:05:28;;;;;;;5.88;5.38;;;18.70;99.90;;;;;;10328697;28;20279;-87
2023/06/26 20:10:30;;;;;;;7.72;6.93;;;18.60;99.90;;;;;;10328364;28;20315;-89
2023/06/26 20:15:33;;;;;;;7.85;6.07;;;18.50;99.90;;;;;;10328866;28;20260;-89
2023/06/26 20:20:36;;;;;;;5.95;5.10;;;18.50;99.90;;;;;;10329688;28;20236;-89
2023/06/26 20:25:39;;;;;;;7.18;5.93;;;18.40;99.90;;;;;;10326899;28;20268;-88
2023/06/26 20:30:42;;;;;;;6.65;6.05;;;18.50;99.90;;;;;;10329356;28;20984;-89
2023/06/26 20:35:44;;;;;;;6.03;5.43;;;18.50;99.90;;;;;;10327747;28;20244;-89
2023/06/26 20:40:47;;;;;;;7.70;6.40;;;18.40;99.90;;;;;;10329825;28;20249;-89
2023/06/26 20:45:50;;;;;;;6.85;6.10;;;18.50;99.90;;;;;;10307219;28;20260;-89
2023/06/26 20:50:53;;;;;;;6.82;6.20;;;18.50;99.90;;;;;;10327026;28;20228;-89
2023/06/26 20:55:56;;;;;;;7.35;6.40;;;18.50;99.90;;;;;;10312123;28;20295;-86
2023/06/26 21:00:58;;;;;;;7.28;5.85;;;18.30;99.90;;;;;;10357249;28;20240;-89
2023/06/26 21:06:01;;;;;;;6.32;5.75;;;18.40;99.90;;;;;;10326912;28;20672;-89
2023/06/26 21:11:03;;;;;;;7.00;5.10;;;18.50;99.90;;;;;;10326598;28;20264;-88
2023/06/26 21:16:06;;;;;;;7.28;6.57;;;18.40;99.90;;;;;;10345767;28;20339;-89
2023/06/26 21:21:09;;;;;;;7.00;5.70;;;18.50;99.90;;;;;;10330475;28;20292;-89
2023/06/26 21:26:11;;;;;;;6.05;5.45;;;18.40;99.90;;;;;;10323679;28;20264;-89
2023/06/26 21:31:14;;;;;;;5.30;4.80;;;18.40;99.90;;;;;;10321530;28;20224;-89
2023/06/26 21:36:16;;;;;;;5.57;5.15;;;18.40;99.90;;;;;;10325611;28;21061;-89
2023/06/26 21:41:19;;;;;;;6.65;6.05;;;18.50;99.90;;;;;;10325397;28;20318;-89
2023/06/26 21:46:21;;;;;;;6.20;5.70;;;18.60;99.90;;;;;;10347473;28;20260;-88
2023/06/26 21:51:24;;;;;;;8.07;6.78;;;18.60;99.90;;;;;;10353842;28;20232;-87
2023/06/26 21:56:27;;;;;;;8.90;7.10;;;18.60;99.90;;;;;;10341699;28;20243;-88
2023/06/26 22:01:29;;;;;;;7.05;6.35;;;18.60;99.90;;;;;;10321956;28;20275;-87
2023/06/26 22:06:32;;;;;;;6.43;5.57;;;18.70;99.90;;;;;;10325597;28;20307;-88
2023/06/26 22:11:34;;;;;;;6.50;5.90;;;18.70;99.90;;;;;;10324367;28;20264;-88
2023/06/26 22:16:37;;;;;;;7.10;6.50;;;18.80;99.90;;;;;;10331802;28;20259;-87
2023/06/26 22:21:39;;;;;;;6.47;5.85;;;18.90;99.90;;;;;;10343589;28;20299;-88
2023/06/26 22:26:49;;;;;;;6.32;5.82;;;19.00;99.90;;;;;;10317066;28;20260;-88
2023/06/26 22:31:52;;;;;;;6.47;5.88;;;19.10;99.90;;;;;;10345781;28;20772;-88
2023/06/26 22:36:54;;;;;;;7.82;6.97;;;19.20;99.90;;;;;;10373878;28;20252;-88
2023/06/26 22:41:57;;;;;;;6.38;5.63;;;19.30;99.90;;;;;;10342255;28;20248;-87
2023/06/26 22:47:00;;;;;;;8.27;6.75;;;19.40;99.90;;;;;;10361391;28;20287;-87
2023/06/26 22:52:03;;;;;;;6.88;6.18;;;19.40;99.90;;;;;;10373336;28;20656;-87
2023/06/26 22:57:06;;;;;;;6.10;5.55;;;19.40;99.90;;;;;;10371559;28;20252;-87
2023/06/26 23:02:08;;;;;;;10.25;7.95;;;19.40;99.90;;;;;;10353729;28;20247;-87
2023/06/26 23:07:12;;;;;;;6.22;5.72;;;19.50;99.90;;;;;;10372135;28;20682;-87
2023/06/26 23:12:15;;;;;;;7.20;6.50;;;19.50;99.90;;;;;;10332688;28;20260;-87
2023/06/26 23:17:18;;;;;;;6.65;6.05;;;19.40;99.90;;;;;;10331754;28;20306;-87
2023/06/26 23:22:20;;;;;;;7.20;6.20;;;19.40;99.90;;;;;;10359413;28;20627;-87
2023/06/26 23:27:23;;;;;;;7.95;7.03;;;19.50;99.90;;;;;;10354562;28;20725;-86
2023/06/26 23:32:26;;;;;;;9.38;7.30;;;19.40;99.90;;;;;;10348257;28;20619;-87
2023/06/26 23:37:29;;;;;;;7.13;6.25;;;19.20;99.90;;;;;;10331548;28;20259;-87
2023/06/26 23:42:31;;;;;;;6.50;5.90;;;19.10;99.90;;;;;;10333939;28;20252;-87
2023/06/26 23:47:34;;;;;;;5.43;4.93;;;19.10;99.90;;;;;;10371285;28;20260;-87
2023/06/26 23:52:37;;;;;;;6.75;6.10;;;19.20;99.90;;;;;;10371814;28;20283;-87
2023/06/26 23:57:41;;;;;;;7.57;6.05;;;19.20;99.90;;;;;;10368690;28;20255;-87
